Hingham, Montana
Current Conditions -  °F | °C
As of 3:53 PM on Wednesday 26 Nov 2014 (Local Time) from KHVR Reporting Station
Light Snow Light Snow  
Wind Chill: -5°   Ceiling: 4400
Heat Index: -1°   Visibility: 5mi
Dew Point: -3°   Wind: 9mph
Humidity: 85%   Direction: 80°E
Pressure: 30.18"   Gusts: NA
Location:  48.55°N, 110.42°W
Report Text: KHVR 262253Z AUTO 08008KT 5SM -SN BR BKN044 OVC050 M01/M03 A3018 RMK AO2 SNB07 SLP250 P0000 T10061028
Loading
Personal Weather Stations






























Interactive Weather Map New forecast layout! Learn more

10-Day Weather Forecast

Advertisements
Track Severe Weather on mobile